Gardena, CA (90247)

12:31 PM PDT on July 05, 2015 (GMT -0700)
West Gardena | | Change Station
CLOSE
Current Station
Personal Weather Station
Location: Gardena, CA
Elevation: 59 ft
Nearby Weather Stations

Elev 59 ft 33.90 °N, 118.32 °W | Updated 6 minutes ago

Overcast
Overcast
73.2 °F
Feels Like 75 °F
N
6.3
Wind Variable Wind from West

Today
High -- | Low -- °F
--% Chance of Precip.
Yesterday
High -- | Low -- °F
Precip. -- in
5:47 AM 8:07 PM
Waning Gibbous, 82% visible
Pressure 30.01 in
Visibility 10.0 miles
Clouds Overcast 1800 ft
Heat Index 75 °F
Dew Point 64 °F
Humidity 73%
Rainfall 0.00 in
Snow Depth Not available.
UV 3 out of 12
Pollen 3.50 out of 12
Air Quality Not available.
Flu Activity Not available.
METAR KHHR 051853Z 26006KT 10SM OVC018 21/15 A3001 RMK AO2 SLP161 T02060150

More Conditions Fewer Conditions

Pressure 30.01 in
Visibility 10.0 miles
Clouds Overcast 1800 ft
Heat Index 75 °F
Dew Point 64 °F
Humidity 73%
Rainfall 0.00 in
Snow Depth Not available.
UV 3 out of 12
Pollen 3.50 out of 12
Air Quality Not available.
Flu Activity Not available.
METAR KHHR 051853Z 26006KT 10SM OVC018 21/15 A3001 RMK AO2 SLP161 T02060150

More Conditions Fewer Conditions

10-Day Weather Forecast

×

Almanac

Astronomy

Jul. 05, 2015 Rise Set
Actual Time
Civil Twilight
Nautical Twilight
Astronomical Twilight
Moon
Length of Visible Light
Length of Day
Tomorrow will be .
, % of the Moon is Illuminated

Today's Extremes

State Highs State Lows

Community

WunderPhotos

Upload Photos

1,835,358 photos uploaded!

WunderBlogs® & News

Nearby

Air Quality

  Air Quality AQ Index Pollutant
Not available.

Snow Depth

Station Depth Elevation

Earthquake Activity

City Distance Mag. Time & Date
Minimum magnitude displayed is 2.5.

Coastal Water Temperatures

Place Temperature

Stations

Nearby Weather Stations

Station Location Temp. Windchill Dew Point Humidity Wind Precip. Elev Updated Type